Time;durP1;ratioP1;P1;durP2;ratioP2;P2;SDS_P1;SDS_P2;PMS_P1;PMS_P2;Temp;Humidity;BMP_temperature;BMP_pressure;BME280_temperature;BME280_humidity;BME280_pressure;Samples;Min_cycle;Max_cycle;Signal;HPM_P1;HPM_P2
2023/11/28 00:00:58;;;;;;;;;4.00;2.00;;;;;8.11;76.33;99408.72;5081508;27;45326;-62
2023/11/28 00:03:23;;;;;;;;;4.00;3.00;;;;;8.14;76.83;99413.81;5093630;27;62976;-62
2023/11/28 00:05:48;;;;;;;;;3.00;1.00;;;;;8.14;77.04;99417.28;5100612;27;71595;-62
2023/11/28 00:08:14;;;;;;;;;4.50;3.00;;;;;8.11;76.71;99414.78;5095408;27;75388;-62
2023/11/28 00:10:39;;;;;;;;;5.25;2.00;;;;;8.10;76.90;99413.06;5093284;27;45356;-62
2023/11/28 00:13:06;;;;;;;;;2.00;2.00;;;;;8.07;77.00;99407.97;5083723;27;69398;-62
2023/11/28 00:15:32;;;;;;;;;3.00;3.00;;;;;8.09;77.20;99423.56;5091524;27;45552;-62
2023/11/28 00:17:58;;;;;;;;;3.00;2.75;;;;;8.07;76.88;99421.00;5100131;27;46380;-62
2023/11/28 00:20:23;;;;;;;;;2.00;2.00;;;;;8.05;76.99;99428.03;5096420;27;71785;-62
2023/11/28 00:22:49;;;;;;;;;7.00;3.50;;;;;8.04;76.90;99431.56;5082217;27;45484;-62
2023/11/28 00:25:18;;;;;;;;;2.00;2.00;;;;;8.03;76.91;99427.25;5074420;27;73191;-61
2023/11/28 00:27:44;;;;;;;;;4.75;3.00;;;;;8.00;77.00;99419.53;5078465;27;47720;-61
2023/11/28 00:30:10;;;;;;;;;2.00;2.00;;;;;7.96;76.91;99418.81;5084666;27;45798;-62
2023/11/28 00:32:35;;;;;;;;;3.00;3.00;;;;;7.94;76.98;99425.84;5097076;27;45921;-62
2023/11/28 00:35:01;;;;;;;;;4.00;3.00;;;;;7.93;76.74;99431.97;5075874;27;67854;-62
2023/11/28 00:37:26;;;;;;;;;5.50;2.00;;;;;7.92;77.02;99429.41;5087224;27;52776;-63
2023/11/28 00:39:51;;;;;;;;;5.25;3.00;;;;;7.90;77.07;99429.47;5097770;27;73103;-63
2023/11/28 00:42:17;;;;;;;;;3.00;2.25;;;;;7.90;77.10;99428.63;5098546;27;46700;-62
2023/11/28 00:44:42;;;;;;;;;3.75;3.00;;;;;7.91;77.01;99433.75;5089429;27;45532;-62
2023/11/28 00:47:09;;;;;;;;;4.50;2.25;;;;;7.93;77.25;99433.69;5088735;27;52561;-63
2023/11/28 00:49:35;;;;;;;;;10.00;3.00;;;;;7.93;77.20;99423.28;5093589;27;45433;-62
2023/11/28 00:52:00;;;;;;;;;2.00;2.00;;;;;7.94;77.42;99431.03;5097416;27;45334;-62
2023/11/28 00:54:25;;;;;;;;;2.50;2.00;;;;;7.97;76.67;99430.09;5085688;27;71069;-62
2023/11/28 00:56:51;;;;;;;;;2.00;2.00;;;;;7.96;76.95;99437.03;5096512;27;75728;-62
2023/11/28 00:59:16;;;;;;;;;2.75;2.00;;;;;7.95;77.25;99439.69;5097768;27;45497;-62
2023/11/28 01:01:41;;;;;;;;;3.50;2.00;;;;;7.98;76.69;99447.41;5089150;27;64033;-61
2023/11/28 01:04:06;;;;;;;;;2.75;2.00;;;;;7.97;76.80;99443.97;5095374;27;65762;-61
2023/11/28 01:06:32;;;;;;;;;3.00;3.00;;;;;7.95;76.51;99447.50;5064634;28;77826;-61
2023/11/28 01:08:57;;;;;;;;;3.00;1.50;;;;;7.91;76.58;99462.41;5094651;27;45371;-62
2023/11/28 01:11:23;;;;;;;;;2.00;1.50;;;;;7.90;76.04;99460.72;5075972;27;45644;-62
2023/11/28 01:13:48;;;;;;;;;5.50;1.25;;;;;7.88;76.12;99465.16;5095872;27;45328;-63
2023/11/28 01:16:14;;;;;;;;;5.50;2.00;;;;;7.85;75.74;99465.25;5091334;27;75620;-62
2023/11/28 01:18:39;;;;;;;;;4.75;1.75;;;;;7.82;75.75;99473.16;5086596;27;45469;-62
2023/11/28 01:21:05;;;;;;;;;3.50;0.75;;;;;7.81;75.61;99479.28;5089542;27;53606;-62
2023/11/28 01:23:30;;;;;;;;;2.00;2.00;;;;;7.80;75.53;99475.81;5096105;27;45398;-61
2023/11/28 01:25:55;;;;;;;;;2.75;1.00;;;;;7.80;75.41;99481.03;5093138;27;74549;-62
2023/11/28 01:28:21;;;;;;;;;1.75;1.00;;;;;7.78;75.32;99477.63;5090729;27;73102;-63
2023/11/28 01:30:46;;;;;;;;;2.00;1.00;;;;;7.79;74.89;99479.34;5096852;27;48260;-61
2023/11/28 01:33:12;;;;;;;;;2.50;2.00;;;;;7.77;74.89;99481.16;5098718;27;45366;-62
2023/11/28 01:35:38;;;;;;;;;2.75;2.00;;;;;7.77;75.19;99486.38;5072334;27;46231;-62
2023/11/28 01:38:04;;;;;;;;;2.00;2.00;;;;;7.76;75.14;99484.66;5085021;27;45340;-62
2023/11/28 01:40:29;;;;;;;;;1.00;1.00;;;;;7.77;75.00;99480.28;5084902;27;45464;-62
2023/11/28 01:42:54;;;;;;;;;3.75;1.00;;;;;7.78;74.69;99482.00;5097846;27;72188;-62
2023/11/28 01:45:22;;;;;;;;;1.50;1.50;;;;;7.76;74.91;99482.06;5094156;27;75673;-62
2023/11/28 01:47:49;;;;;;;;;0.00;0.00;;;;;7.76;74.98;99487.25;5090222;27;45847;-62
2023/11/28 01:50:14;;;;;;;;;1.00;1.00;;;;;7.75;74.70;99498.56;5075435;27;45307;-62
2023/11/28 01:52:40;;;;;;;;;0.00;0.00;;;;;7.75;74.73;99501.19;5093294;27;51412;-62
2023/11/28 01:55:05;;;;;;;;;1.50;1.50;;;;;7.74;74.70;99499.50;5070111;27;46062;-62
2023/11/28 01:57:32;;;;;;;;;2.00;2.00;;;;;7.77;74.60;99498.53;5096119;27;45371;-62
2023/11/28 01:59:58;;;;;;;;;3.75;1.75;;;;;7.78;74.75;99497.63;5076203;27;67590;-62
2023/11/28 02:02:24;;;;;;;;;1.00;1.00;;;;;7.82;74.68;99511.38;5088327;27;45312;-62
2023/11/28 02:04:49;;;;;;;;;2.50;2.00;;;;;7.83;74.77;99515.72;5080133;27;46140;-62
2023/11/28 02:07:14;;;;;;;;;3.25;2.00;;;;;7.85;74.46;99516.50;5096027;27;45333;-62
2023/11/28 02:09:40;;;;;;;;;2.50;2.50;;;;;7.87;74.75;99519.91;5096037;27;45263;-62
2023/11/28 02:12:06;;;;;;;;;3.00;3.00;;;;;7.90;74.60;99522.41;5092342;27;45313;-62
2023/11/28 02:14:31;;;;;;;;;2.25;2.00;;;;;7.91;74.53;99521.47;5094643;27;45364;-62
2023/11/28 02:16:57;;;;;;;;;2.75;2.75;;;;;7.93;74.88;99524.88;5079584;27;45262;-62
2023/11/28 02:19:22;;;;;;;;;2.00;2.00;;;;;7.93;74.48;99530.97;5093659;27;45473;-62
2023/11/28 02:21:48;;;;;;;;;2.00;2.00;;;;;7.93;74.61;99523.13;5098237;27;73288;-62
2023/11/28 02:24:14;;;;;;;;;2.50;2.50;;;;;7.91;74.45;99524.91;5066371;27;45345;-62
2023/11/28 02:26:40;;;;;;;;;5.50;3.00;;;;;7.92;74.62;99529.25;5076038;27;57833;-62
2023/11/28 02:29:05;;;;;;;;;3.50;3.50;;;;;7.91;74.81;99532.75;5088864;27;45388;-62
2023/11/28 02:31:31;;;;;;;;;2.00;2.00;;;;;7.92;74.75;99534.44;5097466;27;45545;-63
2023/11/28 02:33:56;;;;;;;;;5.50;4.00;;;;;7.91;74.59;99524.09;5093444;27;45389;-62
2023/11/28 02:36:22;;;;;;;;;2.50;2.50;;;;;7.91;74.78;99530.13;5088305;27;45286;-63
2023/11/28 02:38:48;;;;;;;;;5.00;3.00;;;;;7.92;74.83;99528.41;5081524;27;45287;-62
2023/11/28 02:41:14;;;;;;;;;3.75;3.00;;;;;7.94;74.62;99518.78;5093182;27;45475;-60
2023/11/28 02:43:39;;;;;;;;;5.00;5.00;;;;;7.95;74.62;99523.06;5085924;27;46194;-60
2023/11/28 02:46:05;;;;;;;;;5.00;2.00;;;;;7.93;74.44;99532.69;5095564;27;45279;-60
2023/11/28 02:48:30;;;;;;;;;4.75;3.50;;;;;7.90;74.42;99536.25;5102434;27;45330;-60
2023/11/28 02:50:55;;;;;;;;;5.50;3.75;;;;;7.89;74.67;99525.91;5087881;27;51115;-61
2023/11/28 02:53:21;;;;;;;;;3.75;3.50;;;;;7.87;74.67;99531.16;5097223;27;46167;-61
2023/11/28 02:55:46;;;;;;;;;4.50;3.25;;;;;7.86;74.51;99539.03;5095469;27;67413;-62
2023/11/28 02:58:11;;;;;;;;;3.25;3.25;;;;;7.84;74.82;99540.84;5099567;27;45407;-61
2023/11/28 03:00:37;;;;;;;;;4.75;3.75;;;;;7.87;75.03;99546.78;5093108;27;72981;-61
2023/11/28 03:03:02;;;;;;;;;5.00;3.00;;;;;7.92;74.78;99555.28;5088084;27;45461;-61
2023/11/28 03:05:27;;;;;;;;;5.75;2.00;;;;;7.94;74.71;99552.63;5100191;27;45419;-61
2023/11/28 03:07:53;;;;;;;;;5.00;4.00;;;;;7.94;74.83;99553.47;5097582;27;56635;-61
2023/11/28 03:10:19;;;;;;;;;3.50;3.50;;;;;7.93;74.72;99561.34;5086167;27;46262;-61
2023/11/28 03:12:44;;;;;;;;;5.00;4.25;;;;;7.92;75.13;99560.50;5099375;27;46989;-61
2023/11/28 03:15:09;;;;;;;;;8.50;6.50;;;;;7.90;74.92;99572.72;5098110;27;73306;-61
2023/11/28 03:17:35;;;;;;;;;4.00;3.00;;;;;7.87;75.20;99582.41;5078814;27;45394;-61
2023/11/28 03:20:00;;;;;;;;;3.25;3.00;;;;;7.82;75.35;99564.31;5090034;27;65802;-61
2023/11/28 03:22:25;;;;;;;;;4.00;4.00;;;;;7.87;75.74;99577.19;5093831;27;75967;-60
2023/11/28 03:24:51;;;;;;;;;2.50;2.00;;;;;7.90;75.58;99577.09;5076249;27;71098;-60
2023/11/28 03:27:18;;;;;;;;;7.50;3.00;;;;;7.87;75.77;99585.00;5096888;27;45407;-61
2023/11/28 03:29:44;;;;;;;;;4.25;3.75;;;;;7.83;75.87;99589.47;5091868;27;45422;-61
2023/11/28 03:32:10;;;;;;;;;5.25;2.00;;;;;7.82;76.30;99592.97;5078132;27;47546;-60
2023/11/28 03:34:36;;;;;;;;;4.50;4.00;;;;;7.80;76.19;99598.22;5086125;27;45413;-61
2023/11/28 03:37:01;;;;;;;;;9.00;4.00;;;;;7.74;76.23;99603.66;5099323;27;45360;-62
2023/11/28 03:39:26;;;;;;;;;4.00;4.00;;;;;7.70;76.62;99602.06;5093620;27;53791;-61
2023/11/28 03:41:52;;;;;;;;;4.25;4.00;;;;;7.68;76.66;99610.81;5085911;27;46014;-62
2023/11/28 03:44:17;;;;;;;;;8.25;6.00;;;;;7.66;77.04;99610.03;5087935;27;51010;-62
2023/11/28 03:46:43;;;;;;;;;6.00;3.00;;;;;7.66;77.15;99616.06;5090461;27;45327;-62
2023/11/28 03:49:09;;;;;;;;;7.00;4.00;;;;;7.65;77.19;99624.81;5089131;27;45247;-62
2023/11/28 03:51:36;;;;;;;;;9.75;3.50;;;;;7.63;77.29;99616.16;5096143;27;45442;-62
2023/11/28 03:54:01;;;;;;;;;4.00;4.00;;;;;7.64;77.25;99622.25;5094004;27;45403;-62
2023/11/28 03:56:26;;;;;;;;;4.75;4.00;;;;;7.65;77.40;99622.19;5089720;27;45995;-62
2023/11/28 03:58:52;;;;;;;;;5.00;4.00;;;;;7.62;77.43;99626.66;5099288;27;70875;-62
2023/11/28 04:01:17;;;;;;;;;8.00;4.50;;;;;7.62;77.56;99629.25;5097711;27;46041;-62
2023/11/28 04:03:43;;;;;;;;;13.75;6.50;;;;;7.62;77.49;99629.25;5089559;27;45642;-62
2023/11/28 04:06:08;;;;;;;;;4.50;3.75;;;;;7.63;77.50;99634.38;5092263;27;45495;-61
2023/11/28 04:08:34;;;;;;;;;4.00;4.00;;;;;7.65;77.50;99644.75;5087236;27;45345;-61
2023/11/28 04:10:59;;;;;;;;;7.00;5.00;;;;;7.61;77.36;99638.81;5094719;27;45340;-62
2023/11/28 04:13:24;;;;;;;;;7.75;4.50;;;;;7.65;77.65;99644.75;5092039;27;58485;-62
2023/11/28 04:15:50;;;;;;;;;5.00;5.00;;;;;7.66;77.34;99657.72;5071084;27;45424;-62
2023/11/28 04:18:15;;;;;;;;;4.00;3.00;;;;;7.66;77.30;99664.69;5089645;27;66923;-62
2023/11/28 04:20:40;;;;;;;;;7.75;3.00;;;;;7.66;77.45;99662.09;5099468;27;73985;-62
2023/11/28 04:23:06;;;;;;;;;8.25;3.00;;;;;7.65;77.13;99665.59;5097070;27;49111;-62
2023/11/28 04:25:31;;;;;;;;;5.00;5.00;;;;;7.64;77.31;99675.16;5090521;27;45474;-62
2023/11/28 04:27:57;;;;;;;;;7.00;4.00;;;;;7.62;77.28;99670.91;5092829;27;74169;-62
2023/11/28 04:30:22;;;;;;;;;5.50;5.00;;;;;7.62;77.08;99670.91;5100073;27;73279;-62
2023/11/28 04:32:47;;;;;;;;;3.00;3.00;;;;;7.58;77.07;99686.63;5073164;28;48529;-62
2023/11/28 04:35:13;;;;;;;;;9.00;4.00;;;;;7.53;76.69;99672.91;5090414;27;69037;-63
2023/11/28 04:37:38;;;;;;;;;9.75;3.00;;;;;7.48;76.68;99674.78;5085946;27;48076;-63
2023/11/28 04:40:04;;;;;;;;;7.25;3.00;;;;;7.44;76.82;99675.81;5090205;27;75251;-60
2023/11/28 04:42:31;;;;;;;;;4.50;3.75;;;;;7.42;76.61;99690.63;5084462;27;45302;-60
2023/11/28 04:44:56;;;;;;;;;2.50;2.50;;;;;7.36;76.68;99682.97;5096694;27;45367;-60
2023/11/28 04:47:21;;;;;;;;;3.25;3.25;;;;;7.32;76.66;99691.78;5094239;27;45647;-60
2023/11/28 04:49:47;;;;;;;;;2.00;2.00;;;;;7.28;76.41;99705.78;5099056;27;74398;-60
2023/11/28 04:52:12;;;;;;;;;3.00;2.00;;;;;7.23;76.37;99687.72;5070687;27;68241;-61
2023/11/28 04:54:37;;;;;;;;;2.00;2.00;;;;;7.22;76.47;99701.63;5089184;27;68388;-61
2023/11/28 04:57:04;;;;;;;;;2.00;1.50;;;;;7.22;76.63;99710.28;5090529;27;45614;-61
2023/11/28 04:59:30;;;;;;;;;2.00;2.00;;;;;7.22;76.46;99722.44;5099122;27;46170;-61
2023/11/28 05:01:55;;;;;;;;;3.50;1.00;;;;;7.19;76.35;99720.78;5095221;27;47823;-61
2023/11/28 05:04:21;;;;;;;;;2.25;1.00;;;;;7.21;76.37;99720.75;5086325;27;69892;-60
2023/11/28 05:06:46;;;;;;;;;1.75;1.00;;;;;7.23;76.12;99730.19;5091697;27;45497;-61
2023/11/28 05:09:11;;;;;;;;;3.00;2.00;;;;;7.25;76.03;99724.94;5096129;27;46963;-61
2023/11/28 05:11:41;;;;;;;;;1.00;1.00;;;;;7.29;75.90;99734.34;5091961;27;45417;-61
2023/11/28 05:14:06;;;;;;;;;1.00;1.00;;;;;7.30;75.69;99735.22;5085759;27;45391;-61
2023/11/28 05:16:32;;;;;;;;;1.50;1.25;;;;;7.34;75.42;99747.25;5090209;27;45335;-62
2023/11/28 05:18:57;;;;;;;;;2.00;2.00;;;;;7.33;74.99;99753.34;5082780;27;46009;-62
2023/11/28 05:21:22;;;;;;;;;1.75;1.75;;;;;7.31;75.13;99768.16;5101480;27;71758;-61
2023/11/28 05:23:48;;;;;;;;;1.00;1.00;;;;;7.31;75.23;99768.16;5097608;27;66962;-62
2023/11/28 05:26:13;;;;;;;;;2.00;1.00;;;;;7.28;75.09;99763.03;5058722;27;67383;-61
2023/11/28 05:28:38;;;;;;;;;3.00;3.00;;;;;7.26;75.04;99776.09;5092718;27;48490;-61
2023/11/28 05:31:04;;;;;;;;;5.25;2.00;;;;;7.26;74.78;99778.72;5072730;28;72978;-62
2023/11/28 05:33:29;;;;;;;;;1.00;1.00;;;;;7.21;74.96;99785.78;5092287;27;45664;-62
2023/11/28 05:35:55;;;;;;;;;2.50;2.25;;;;;7.17;75.00;99798.03;5094969;27;45288;-61
2023/11/28 05:38:20;;;;;;;;;4.00;3.00;;;;;7.09;74.26;99805.19;5098335;27;69876;-62
2023/11/28 05:40:45;;;;;;;;;2.25;2.00;;;;;7.02;73.80;99812.31;5086008;27;72212;-62
2023/11/28 05:43:11;;;;;;;;;2.75;2.00;;;;;6.98;73.82;99813.28;5088049;27;68282;-62
2023/11/28 05:45:36;;;;;;;;;6.00;3.00;;;;;6.99;73.56;99840.16;5094671;27;58822;-62
2023/11/28 05:48:02;;;;;;;;;5.75;3.50;;;;;6.98;73.13;99825.47;5086761;27;70420;-62
2023/11/28 05:50:27;;;;;;;;;4.25;4.00;;;;;6.97;72.76;99827.19;5081691;27;45288;-61
2023/11/28 05:52:53;;;;;;;;;8.00;5.00;;;;;6.97;72.61;99835.00;5094663;27;45417;-61
2023/11/28 05:55:20;;;;;;;;;6.25;6.00;;;;;6.97;72.17;99841.94;5092710;27;45232;-62
2023/11/28 05:57:46;;;;;;;;;7.50;3.00;;;;;6.94;71.90;99853.31;5087214;27;46624;-62
2023/11/28 06:00:12;;;;;;;;;7.00;4.00;;;;;6.91;71.51;99853.38;5091704;27;45450;-62
2023/11/28 06:02:38;;;;;;;;;6.50;6.50;;;;;6.91;71.69;99855.13;5091949;27;45284;-62
2023/11/28 06:05:04;;;;;;;;;8.00;4.00;;;;;6.87;71.51;99854.34;5086642;27;45442;-61
2023/11/28 06:07:29;;;;;;;;;6.00;3.75;;;;;6.87;71.64;99861.28;5074649;27;45375;-62
2023/11/28 06:09:55;;;;;;;;;4.50;4.00;;;;;6.86;71.58;99864.78;5087139;27;73299;-62
2023/11/28 06:12:20;;;;;;;;;6.75;5.00;;;;;6.82;71.66;99872.66;5082824;27;45489;-61
2023/11/28 06:14:45;;;;;;;;;2.25;2.00;;;;;6.79;71.73;99872.72;5099049;27;70986;-62
2023/11/28 06:17:12;;;;;;;;;4.75;4.00;;;;;6.78;71.80;99884.03;5099433;27;63299;-61
2023/11/28 06:19:37;;;;;;;;;5.25;4.00;;;;;6.76;71.94;99888.41;5069722;27;45886;-62
2023/11/28 06:22:03;;;;;;;;;6.00;4.75;;;;;6.77;71.75;99895.31;5091262;27;50379;-62
2023/11/28 06:24:28;;;;;;;;;7.50;7.50;;;;;6.74;71.50;99892.78;5071005;27;45504;-62
2023/11/28 06:26:54;;;;;;;;;6.25;4.50;;;;;6.70;71.34;99904.16;5094534;27;63842;-62
2023/11/28 06:29:19;;;;;;;;;5.50;5.50;;;;;6.69;71.05;99917.22;5073528;27;45241;-62
2023/11/28 06:31:44;;;;;;;;;7.00;6.00;;;;;6.62;71.02;99912.16;5093651;27;45404;-62
2023/11/28 06:34:10;;;;;;;;;9.00;6.75;;;;;6.59;71.12;99912.25;5094186;27;63166;-63
2023/11/28 06:36:36;;;;;;;;;8.00;6.50;;;;;6.58;70.89;99922.66;5090834;27;45433;-62
2023/11/28 06:39:02;;;;;;;;;7.00;5.75;;;;;6.54;70.82;99927.09;5077979;28;45725;-62
2023/11/28 06:41:27;;;;;;;;;7.75;7.00;;;;;6.51;70.94;99926.31;5090788;27;45639;-61
2023/11/28 06:43:53;;;;;;;;;8.75;6.75;;;;;6.45;70.83;99929.91;5089525;27;45403;-62
2023/11/28 06:46:19;;;;;;;;;18.25;16.75;;;;;6.38;70.66;99933.53;5073181;27;47052;-61
2023/11/28 06:48:45;;;;;;;;;15.75;12.00;;;;;6.32;70.83;99931.94;5098660;27;46273;-62
2023/11/28 06:51:10;;;;;;;;;14.00;7.75;;;;;6.27;71.15;99937.22;5095006;27;55085;-62
2023/11/28 06:53:36;;;;;;;;;9.00;7.75;;;;;6.22;71.00;99939.06;5087634;27;46030;-63
2023/11/28 06:56:03;;;;;;;;;12.00;9.25;;;;;6.19;71.15;99952.13;5092757;27;55505;-61
2023/11/28 06:58:28;;;;;;;;;8.25;6.50;;;;;6.17;71.10;99958.25;5071328;27;45963;-62
2023/11/28 07:00:54;;;;;;;;;9.50;7.00;;;;;6.14;70.97;99958.31;5089196;27;45323;-61
2023/11/28 07:03:20;;;;;;;;;12.00;7.25;;;;;6.11;71.12;99960.94;5075493;27;45559;-68
2023/11/28 07:05:45;;;;;;;;;11.00;6.75;;;;;6.07;71.18;99961.03;5075103;27;75395;-61
2023/11/28 07:08:11;;;;;;;;;9.75;9.25;;;;;6.09;71.35;99968.78;5084896;27;73338;-60
2023/11/28 07:10:36;;;;;;;;;12.00;8.25;;;;;6.12;71.54;99967.88;5092628;27;45230;-60
2023/11/28 07:13:01;;;;;;;;;8.50;8.00;;;;;6.16;71.27;99972.09;5091390;27;47094;-59
2023/11/28 07:15:27;;;;;;;;;10.75;8.00;;;;;6.20;71.36;99982.41;5090890;27;76462;-59
2023/11/28 07:17:52;;;;;;;;;11.25;8.50;;;;;6.24;71.22;99993.59;5091031;27;45488;-59
2023/11/28 07:20:18;;;;;;;;;13.00;9.50;;;;;6.26;71.05;99997.84;5092771;27;45711;-59
2023/11/28 07:22:43;;;;;;;;;12.25;7.25;;;;;6.26;70.95;99999.59;5076610;27;73279;-60
2023/11/28 07:25:09;;;;;;;;;13.00;9.50;;;;;6.29;70.95;100002.16;5094663;27;63633;-59
2023/11/28 07:27:34;;;;;;;;;12.25;9.00;;;;;6.32;71.00;100014.22;5084384;27;45452;-62
2023/11/28 07:30:00;;;;;;;;;12.25;4.50;;;;;6.34;70.91;100009.81;5086841;27;45465;-61
2023/11/28 07:32:25;;;;;;;;;10.25;9.00;;;;;6.36;70.14;100015.88;5086659;27;68646;-61
2023/11/28 07:34:50;;;;;;;;;11.25;7.75;;;;;6.30;70.01;100019.44;5090608;27;74140;-60
2023/11/28 07:37:16;;;;;;;;;9.00;8.75;;;;;6.24;70.21;100023.03;5078332;27;70539;-61
2023/11/28 07:39:41;;;;;;;;;14.25;10.00;;;;;6.22;70.18;100026.56;5099674;27;68278;-64
2023/11/28 07:42:06;;;;;;;;;9.25;8.00;;;;;6.22;70.22;100029.16;5101442;27;67064;-62
2023/11/28 07:44:32;;;;;;;;;7.00;7.00;;;;;6.21;70.17;100030.03;5090521;27;74168;-61
2023/11/28 07:46:57;;;;;;;;;12.00;9.00;;;;;6.20;70.42;100029.19;5095062;27;45390;-64
2023/11/28 07:49:22;;;;;;;;;16.25;10.50;;;;;6.24;70.98;100037.75;5093732;27;68434;-63
2023/11/28 07:51:48;;;;;;;;;14.50;11.50;;;;;6.30;70.97;100040.22;5063865;27;72185;-65
2023/11/28 07:54:13;;;;;;;;;14.00;12.00;;;;;6.35;70.47;100047.94;5089056;27;73367;-62
2023/11/28 07:56:39;;;;;;;;;13.25;9.00;;;;;6.31;69.94;100034.16;5071640;27;73333;-62
2023/11/28 07:59:04;;;;;;;;;13.50;8.75;;;;;6.21;69.75;100046.47;5100278;27;45244;-61
2023/11/28 08:01:30;;;;;;;;;9.25;8.00;;;;;6.12;69.93;100056.19;5090754;27;72432;-60
2023/11/28 08:03:55;;;;;;;;;11.25;7.50;;;;;6.04;69.66;100056.34;5087437;27;75745;-62
2023/11/28 08:06:20;;;;;;;;;12.50;11.00;;;;;5.98;69.96;100075.47;5088400;27;45508;-62
2023/11/28 08:08:46;;;;;;;;;14.00;10.75;;;;;5.94;69.92;100075.56;5090965;27;45564;-60
2023/11/28 08:11:12;;;;;;;;;13.25;11.75;;;;;5.90;70.04;100082.53;5077347;27;72057;-61
2023/11/28 08:13:37;;;;;;;;;11.00;9.00;;;;;5.87;70.03;100091.22;5097546;27;47113;-61
2023/11/28 08:16:03;;;;;;;;;8.00;7.50;;;;;5.86;70.26;100096.44;5080673;27;66388;-62
2023/11/28 08:18:28;;;;;;;;;19.50;14.50;;;;;5.86;70.13;100110.31;5095169;27;46425;-64
2023/11/28 08:20:54;;;;;;;;;30.25;24.75;;;;;5.92;70.32;100124.06;5098583;27;45463;-62
2023/11/28 08:23:19;;;;;;;;;8.50;7.50;;;;;5.96;70.18;100129.19;5073313;27;45664;-61
2023/11/28 08:25:45;;;;;;;;;19.00;13.00;;;;;6.00;70.18;100135.19;5070301;27;45245;-64
2023/11/28 08:28:10;;;;;;;;;11.00;7.75;;;;;6.04;70.31;100134.28;5094404;27;45616;-64
2023/11/28 08:30:36;;;;;;;;;13.75;9.25;;;;;6.02;70.03;100138.63;5092734;27;47510;-62
2023/11/28 08:33:01;;;;;;;;;17.00;10.75;;;;;6.00;69.91;100143.00;5094048;27;45521;-62
2023/11/28 08:35:26;;;;;;;;;16.75;12.50;;;;;5.97;70.17;100146.50;5091663;27;57350;-62
2023/11/28 08:37:52;;;;;;;;;12.00;9.50;;;;;5.95;70.21;100157.75;5094907;27;69237;-61
2023/11/28 08:40:17;;;;;;;;;12.75;9.50;;;;;6.02;70.29;100164.59;5071589;27;51409;-63
2023/11/28 08:42:43;;;;;;;;;8.00;8.00;;;;;6.12;70.50;100167.91;5088591;27;46306;-62
2023/11/28 08:45:09;;;;;;;;;13.00;11.25;;;;;6.21;70.25;100162.53;5099880;27;45318;-61
2023/11/28 08:47:34;;;;;;;;;11.75;8.50;;;;;6.30;70.11;100164.94;5101115;27;45441;-63
2023/11/28 08:50:01;;;;;;;;;15.75;11.25;;;;;6.37;69.99;100168.28;5094424;27;45513;-59
2023/11/28 08:52:27;;;;;;;;;23.25;12.75;;;;;6.45;69.90;100169.03;5100171;27;45323;-60
2023/11/28 08:54:53;;;;;;;;;12.25;12.25;;;;;6.51;69.95;100166.28;5083579;27;45537;-59
2023/11/28 08:57:18;;;;;;;;;21.75;11.25;;;;;6.59;69.51;100173.97;5075436;27;45426;-63
2023/11/28 08:59:44;;;;;;;;;13.75;11.00;;;;;6.60;69.63;100176.50;5081614;27;45821;-63
2023/11/28 09:02:09;;;;;;;;;12.75;11.00;;;;;6.62;69.27;100173.88;5079189;27;68023;-60
2023/11/28 09:04:34;;;;;;;;;12.50;9.75;;;;;6.59;69.16;100184.34;5079754;27;45501;-59
2023/11/28 09:07:00;;;;;;;;;15.75;9.25;;;;;6.58;69.13;100187.81;5089391;27;63858;-59
2023/11/28 09:09:26;;;;;;;;;14.75;11.50;;;;;6.57;69.11;100199.09;5101712;27;45457;-59
2023/11/28 09:11:51;;;;;;;;;9.50;9.50;;;;;6.59;69.21;100197.34;5088966;27;57243;-59
2023/11/28 09:14:16;;;;;;;;;9.25;9.00;;;;;6.60;69.04;100204.25;5097586;27;63813;-59
2023/11/28 09:16:43;;;;;;;;;10.25;9.25;;;;;6.60;69.06;100205.09;5107231;27;45360;-60
2023/11/28 09:19:09;;;;;;;;;14.25;13.00;;;;;6.59;68.98;100208.59;5082687;27;46999;-58
2023/11/28 09:21:34;;;;;;;;;14.00;12.00;;;;;6.63;69.02;100214.59;5091898;27;46209;-59
2023/11/28 09:23:59;;;;;;;;;18.50;12.50;;;;;6.66;69.00;100222.34;5085032;27;66778;-62
2023/11/28 09:26:26;;;;;;;;;10.75;9.50;;;;;6.66;68.65;100224.94;5093320;27;45302;-58
2023/11/28 09:28:52;;;;;;;;;13.00;8.75;;;;;6.69;68.39;100231.81;5099906;27;45145;-59
2023/11/28 09:31:19;;;;;;;;;13.75;12.00;;;;;6.64;67.48;100239.72;5096208;27;45482;-59
2023/11/28 09:33:44;;;;;;;;;14.25;11.75;;;;;6.59;67.50;100237.19;5099065;27;45322;-57
2023/11/28 09:36:10;;;;;;;;;11.75;7.50;;;;;6.59;67.57;100242.41;5099320;27;69347;-58
2023/11/28 09:38:35;;;;;;;;;12.75;10.00;;;;;6.57;67.36;100241.56;5098352;27;45480;-59
2023/11/28 09:41:02;;;;;;;;;8.50;8.00;;;;;6.61;67.47;100248.41;5100932;27;47893;-58
2023/11/28 09:43:27;;;;;;;;;11.25;8.50;;;;;6.64;66.87;100250.97;5081833;27;73308;-59
2023/11/28 09:45:56;;;;;;;;;9.25;7.25;;;;;6.62;66.25;100254.47;5101327;27;45336;-58
2023/11/28 09:48:24;;;;;;;;;12.50;9.00;;;;;6.58;66.27;100255.41;5080008;27;45286;-58
2023/11/28 09:50:50;;;;;;;;;9.25;7.25;;;;;6.57;66.21;100251.09;5082550;27;45482;-58
2023/11/28 09:53:16;;;;;;;;;10.75;8.75;;;;;6.61;65.89;100248.41;5100935;27;45469;-58
2023/11/28 09:55:43;;;;;;;;;14.25;8.25;;;;;6.62;65.66;100249.28;5079522;27;56595;-58
2023/11/28 09:58:09;;;;;;;;;11.75;8.25;;;;;6.68;65.90;100261.31;5101027;27;45287;-58
2023/11/28 10:00:35;;;;;;;;;12.00;8.00;;;;;6.74;65.85;100262.03;5097987;27;60383;-59
2023/11/28 10:03:02;;;;;;;;;9.00;9.00;;;;;6.76;65.65;100265.47;5076575;27;45531;-59
2023/11/28 10:05:28;;;;;;;;;7.00;7.00;;;;;6.82;65.55;100267.97;5086232;27;45456;-58
2023/11/28 10:07:55;;;;;;;;;13.50;9.50;;;;;6.87;65.62;100277.41;5095388;27;69753;-58
2023/11/28 10:10:23;;;;;;;;;13.25;8.25;;;;;6.93;65.63;100272.97;5100743;27;46355;-59
2023/11/28 10:12:50;;;;;;;;;12.75;9.75;;;;;6.99;65.61;100293.66;5089029;27;45805;-59
2023/11/28 10:15:25;;;;;;;;;18.25;10.75;;;;;7.00;65.56;100279.75;5089976;27;45284;-57
2023/11/28 10:17:50;;;;;;;;;14.25;9.75;;;;;6.98;65.23;100281.53;5087787;27;45223;-58
2023/11/28 10:20:17;;;;;;;;;19.75;14.00;;;;;6.97;65.33;100282.41;5088680;27;74494;-59
2023/11/28 10:22:49;;;;;;;;;16.00;9.50;;;;;6.99;65.14;100292.78;5075020;27;45986;-58
2023/11/28 10:25:15;;;;;;;;;11.00;10.50;;;;;7.00;65.14;100295.38;5074510;27;45258;-58
2023/11/28 10:27:41;;;;;;;;;14.75;8.25;;;;;7.00;64.94;100300.56;5078611;28;45230;-59
2023/11/28 10:30:15;;;;;;;;;12.50;11.75;;;;;7.02;65.18;100290.97;5075687;27;45267;-59
2023/11/28 10:32:41;;;;;;;;;14.25;9.50;;;;;7.09;65.20;100290.88;5080949;27;45785;-59
2023/11/28 10:35:07;;;;;;;;;12.25;9.75;;;;;7.19;65.32;100293.25;5095074;27;45429;-59
2023/11/28 10:37:36;;;;;;;;;11.75;9.25;;;;;7.31;64.86;100294.78;5094345;27;45303;-59
2023/11/28 10:40:06;;;;;;;;;9.00;9.00;;;;;7.36;65.02;100294.66;5091890;27;46387;-59
2023/11/28 10:42:32;;;;;;;;;10.00;8.50;;;;;7.46;64.38;100285.78;5100232;27;45310;-59
2023/11/28 10:44:59;;;;;;;;;13.00;10.00;;;;;7.56;64.35;100289.88;5098641;27;45405;-57
2023/11/28 10:47:28;;;;;;;;;7.50;7.00;;;;;7.69;63.86;100289.63;5088563;27;45375;-59
2023/11/28 10:49:55;;;;;;;;;13.25;10.75;;;;;7.67;63.61;100291.41;5095991;27;45336;-58
2023/11/28 10:52:22;;;;;;;;;9.00;7.00;;;;;7.60;63.56;100288.06;5090419;27;45421;-57
2023/11/28 10:54:53;;;;;;;;;9.25;7.75;;;;;7.63;63.82;100292.34;5096295;27;45361;-58
2023/11/28 10:57:18;;;;;;;;;11.25;9.50;;;;;7.68;63.84;100298.31;5091324;27;45492;-58
2023/11/28 10:59:46;;;;;;;;;17.00;10.25;;;;;7.72;63.48;100293.00;5093961;27;74372;-58
2023/11/28 11:02:16;;;;;;;;;12.00;10.75;;;;;7.73;63.70;100296.47;5076672;27;45344;-59
2023/11/28 11:04:42;;;;;;;;;20.25;13.50;;;;;7.74;63.77;100293.84;5074769;27;45438;-59
2023/11/28 11:07:09;;;;;;;;;15.25;9.75;;;;;7.78;63.67;100298.06;5078670;27;45646;-58
2023/11/28 11:09:34;;;;;;;;;17.00;13.25;;;;;7.76;63.31;100296.41;5095360;27;45334;-59
2023/11/28 11:12:00;;;;;;;;;14.25;9.00;;;;;7.71;63.20;100296.50;5098664;27;45412;-59
2023/11/28 11:14:40;;;;;;;;;12.75;9.50;;;;;7.67;63.28;100296.63;5081696;27;54992;-60
2023/11/28 11:17:31;;;;;;;;;14.50;10.50;;;;;7.69;63.39;100300.88;5072402;27;45264;-59
2023/11/28 11:19:58;;;;;;;;;15.50;11.50;;;;;7.72;63.33;100298.22;5082072;27;46413;-59
2023/11/28 11:22:27;;;;;;;;;19.50;10.00;;;;;7.80;63.22;100298.03;5084732;27;45516;-59
2023/11/28 11:24:53;;;;;;;;;17.25;10.50;;;;;7.88;63.47;100300.47;5098724;27;45406;-59
2023/11/28 11:27:19;;;;;;;;;10.00;9.25;;;;;7.94;63.24;100309.00;5101256;27;45416;-59